Main page
METAR-TAF:

METAR-TAF

Airports :

Kirsch Municipal Airport

Sturgis, Michigan, United States

latitude: 41-48-46N, longitude: 085-26-21W, elevation: 282 m

Current weather observation

The report was made 26 minutes ago, at 15:35 UTC
Wind 4 kt from the Southwest
Temperature 28°C
Humidity 66%
Pressure 1025 hPa
Visibility: 16.1 km
Scattered clouds at a height of 7500 ft

METAR: KIRS 191535Z AUTO 23004KT 10SM SCT075 28/21 A3026 RMK AO2 T02770205

Time: 12:01 (16:01 UTC)


TAF: missing

Weather observations and forecasts of more than 4000 airports (METAR and TAF reports).

The available stations are represented by yellow and red dots on the map.

Hover mouse over dot to see the name of the station.

Then click to see weather observations and forecasts.

To change the map : click on the green buttons with a black cross to zoom in, on the green button with a dash to zoom out, or on the green arrows for adjacent maps.


METAR-TAF: